Share

Balmorhea, TX (79718)

Pecos Municipal (KPEQ) Elev 2612 ft | 31.38 °N, 103.51 °W | Change Station

Current weather conditions updated 6 minutes ago

Mist
Mist
56 °F
Feels Like 56 °F
N
4
Wind Variable Wind from NNW
Sunrise 7:21 AM
Sunset 8:26 PM
Moon Waning Gibbous

Today is forecast to be Warmer than yesterday.

Pressure 30.06 in
Visibility 2.5 miles
Clouds
Dew Point 55 °F
Humidity 96%
Rainfall 0.00 in
Snow Depth Not available.
UV Not available.
Pollen 8.10 out of 12
Air Quality Not available.
Flu Activity Local Activity
METAR KPEQ 201055Z AUTO 33003KT 2 1/2SM BR 13/13 A3006 RMK AO2 SKY OBSCURED T01340127

More Conditions Fewer Conditions

Pressure 30.06 in
Visibility 2.5 miles
Clouds
Dew Point 55 °F
Humidity 96%
Rainfall 0.00 in
Snow Depth Not available.
UV Not available.
Pollen 8.10 out of 12
Air Quality Not available.
Flu Activity Local Activity
METAR KPEQ 201055Z AUTO 33003KT 2 1/2SM BR 13/13 A3006 RMK AO2 SKY OBSCURED T01340127

More Conditions Fewer Conditions

10-Day Weather Forecast

Almanac

Astronomy

Apr. 20, 2014 Rise Set
Actual Time 7:21 AM CDT 8:26 PM CDT
Civil Twilight 6:56 AM CDT 8:51 PM CDT
Nautical Twilight 6:26 AM CDT 9:21 PM CDT
Astronomical Twilight 5:55 AM CDT 9:51 PM CDT
Moon 1:00 AM CDT 11:51 AM CDT
Length of Visible Light 13h 55m
Length of Day
13h 05m
Tomorrow will be 1m 44s longer.
Waning Gibbous, 71% of the Moon is Illuminated
Today
Waning Gibbous
Apr 22
Last Quarter
Apr 29
New
May 6
First Quarter
May 14
Full

Today's Extremes

State Highs State Lows

Community

  • Easter Greetings
    Easter Greetings
  • Sunny day at the coast-Cape Arago Lighthouse
    Sunny day at the coast-Cape Arago Lighthouse
  • Cherry Blossoms
    Cherry Blossoms
  • White-Crowned Sparrow
    White-Crowned Sparrow
  • New Day
    New Day

WunderPhotos

Upload Photos

1,703,136 photos uploaded!

WunderBlogs® & News

Nearby

Snow Depth

Station Depth Elevation
No new snow has been reported.

Coastal Water Temperatures

Place Temperature
No Stations Reporting

Earthquake Activity

City Distance Mag. Time & Date
No recent earthquake activity has been reported nearby.
Minimum magnitude displayed is 2.5.

Nearby Weather Stations

Station Location Temp. Dew Point Humidity Wind Precip. Elev Updated Type
MesoWest GOZAR , Toyah, TX 59 °F - - North  at  - 0.00 in / hr 3427 ft 5:10 AM CDT MADIS

Show More Stations Show Fewer Stations

What do you think?

We're not finished. Please let us know what you like, what you don't like, and what you are still missing.